Time;durP1;ratioP1;P1;durP2;ratioP2;P2;SDS_P1;SDS_P2;PMS_P1;PMS_P2;Temp;Humidity;BMP_temperature;BMP_pressure;BME280_temperature;BME280_humidity;BME280_pressure;Samples;Min_cycle;Max_cycle;Signal;HPM_P1;HPM_P2
2023/02/04 13:27:47;;;;;;;;;;;;;;;8.45;49.21;99911.44;6020179;23;19921;-65
2023/02/04 13:30:12;;;;;;;;;;;;;;;8.48;47.44;99915.72;4923854;29;19931;-65
2023/02/04 13:32:38;;;;;;;;;;;;;;;8.49;47.84;99910.41;4912656;29;19975;-64
2023/02/04 13:35:03;;;;;;;;;;;;;;;8.47;46.92;99919.25;4911678;29;20322;-65
2023/02/04 13:37:28;;;;;;;;;;;;;;;9.02;51.20;99918.22;4909189;29;19923;-65
2023/02/04 13:39:53;;;;;;;;;;;;;;;8.97;45.62;99920.13;4910965;29;20303;-65
2023/02/04 13:42:18;;;;;;;;;;;;;;;8.87;46.65;99918.75;4912553;29;20298;-65
2023/02/04 13:44:44;;;;;;;;;;;;;;;8.77;46.78;99922.56;4910504;29;19946;-65
2023/02/04 13:47:09;;;;;;;;;;;;;;;8.57;45.68;99923.28;4913345;29;19919;-64
2023/02/04 13:49:34;;;;;;;;;;;;;;;8.38;45.92;99920.38;4912400;29;19970;-65
2023/02/04 13:51:59;;;;;;;;;;;;;;;8.13;45.02;99925.50;4910546;29;19919;-64
2023/02/04 13:54:25;;;;;;;;;;;;;;;8.14;46.71;99932.44;4910607;29;19923;-65
2023/02/04 13:56:50;;;;;;;;;;;;;;;8.06;45.96;99934.44;4927879;29;19967;-65
2023/02/04 13:59:15;;;;;;;;;;;;;;;7.99;46.13;99931.16;4912990;29;19921;-65
2023/02/04 14:01:40;;;;;;;;;;;;;;;8.04;46.23;99941.47;4913087;29;19926;-65
2023/02/04 14:04:06;;;;;;;;;;;;;;;7.87;45.39;99931.53;4914622;29;20361;-65
2023/02/04 14:06:37;;;;;;;;;;;;;;;7.79;45.46;99929.16;4912056;29;19926;-65
2023/02/04 14:09:02;;;;;;;;;;;;;;;7.58;44.62;99938.47;4914280;29;19919;-65
2023/02/04 14:11:27;;;;;;;;;;;;;;;7.51;45.13;99936.94;4909938;29;19932;-65
2023/02/04 14:13:52;;;;;;;;;;;;;;;7.54;45.29;99936.84;4912513;29;19977;-65
2023/02/04 14:16:18;;;;;;;;;;;;;;;7.76;45.95;99937.06;4912688;29;20276;-65
2023/02/04 14:18:43;;;;;;;;;;;;;;;8.52;44.68;99933.88;4914321;29;20359;-64
2023/02/04 14:21:08;;;;;;;;;;;;;;;8.51;43.70;99931.31;4911349;29;20328;-65
2023/02/04 14:23:33;;;;;;;;;;;;;;;8.45;44.93;99931.50;4912870;29;20343;-65
2023/02/04 14:25:59;;;;;;;;;;;;;;;8.28;43.78;99935.47;4913785;29;19927;-65
2023/02/04 14:28:24;;;;;;;;;;;;;;;7.97;43.85;99940.78;4916027;29;19942;-65
2023/02/04 14:30:49;;;;;;;;;;;;;;;7.80;44.17;99943.91;4918193;29;19919;-65
2023/02/04 14:33:16;;;;;;;;;;;;;;;7.57;45.41;99941.09;4917110;29;19923;-65
2023/02/04 14:35:42;;;;;;;;;;;;;;;7.25;45.28;99949.84;4917234;29;19926;-65
2023/02/04 14:38:07;;;;;;;;;;;;;;;7.11;46.59;99945.00;4917341;29;19915;-65
2023/02/04 14:40:32;;;;;;;;;;;;;;;6.89;46.88;99948.19;4918337;29;19919;-65
2023/02/04 14:42:57;;;;;;;;;;;;;;;6.79;58.25;99946.72;4915367;29;19919;-65
2023/02/04 14:45:23;;;;;;;;;;;;;;;6.62;47.47;99944.53;4915569;29;19923;-65
2023/02/04 14:47:49;;;;;;;;;;;;;;;6.81;46.49;99955.38;4916152;29;20006;-65
2023/02/04 14:50:14;;;;;;;;;;;;;;;6.79;47.47;99957.13;4917618;29;19919;-65
2023/02/04 14:52:39;;;;;;;;;;;;;;;6.81;47.43;99959.69;4911091;29;19919;-65
2023/02/04 14:55:05;;;;;;;;;;;;;;;6.88;47.02;99964.75;4918334;29;19919;-64
2023/02/04 14:57:30;;;;;;;;;;;;;;;6.87;46.74;99957.78;4917267;29;20015;-63
2023/02/04 14:59:55;;;;;;;;;;;;;;;6.70;46.87;99961.72;4918560;29;19926;-64
2023/02/04 15:02:21;;;;;;;;;;;;;;;6.77;47.38;99965.88;4917061;29;19926;-64
2023/02/04 15:04:47;;;;;;;;;;;;;;;6.74;47.26;99966.81;4917123;29;19930;-63
2023/02/04 15:07:12;;;;;;;;;;;;;;;7.12;46.86;99967.59;4917324;29;20368;-64
2023/02/04 15:09:38;;;;;;;;;;;;;;;7.22;46.22;99965.59;4918148;29;19940;-64
2023/02/04 15:12:03;;;;;;;;;;;;;;;7.20;46.89;99957.81;4913766;29;19919;-64
2023/02/04 15:14:28;;;;;;;;;;;;;;;7.38;52.90;99970.34;4916960;29;19943;-65
2023/02/04 15:16:53;;;;;;;;;;;;;;;7.27;47.71;99964.59;4917168;29;20030;-64
2023/02/04 15:19:19;;;;;;;;;;;;;;;7.85;76.07;99972.53;4913323;29;20018;-64
2023/02/04 15:21:44;;;;;;;;;;;;;;;7.91;50.57;99966.25;4916301;29;19926;-64
2023/02/04 15:24:10;;;;;;;;;;;;;;;7.33;46.66;99972.25;4917406;29;19923;-64
2023/02/04 15:26:35;;;;;;;;;;;;;;;7.19;47.67;99971.78;4916910;29;19928;-64
2023/02/04 15:29:00;;;;;;;;;;;;;;;6.93;47.38;99971.59;4916309;29;19923;-64
2023/02/04 15:31:26;;;;;;;;;;;;;;;6.73;48.40;99972.09;4921204;29;20070;-64
2023/02/04 15:33:51;;;;;;;;;;;;;;;6.83;48.42;99977.03;4916167;29;20014;-64
2023/02/04 15:36:16;;;;;;;;;;;;;;;7.00;49.50;99971.38;4917053;29;20012;-64
2023/02/04 15:38:41;;;;;;;;;;;;;;;7.05;49.09;99973.88;4916822;29;19915;-64
2023/02/04 15:41:07;;;;;;;;;;;;;;;6.98;48.31;99977.53;4915156;29;19967;-64
2023/02/04 15:43:32;;;;;;;;;;;;;;;6.93;49.45;99979.41;4915971;29;19919;-64
2023/02/04 15:45:57;;;;;;;;;;;;;;;6.80;48.71;99976.25;4914069;29;19919;-64
2023/02/04 15:48:27;;;;;;;;;;;;;;;6.49;49.00;99974.38;4917235;29;19916;-64
2023/02/04 15:50:52;;;;;;;;;;;;;;;6.39;49.21;99981.56;4915683;29;20590;-64
2023/02/04 15:53:17;;;;;;;;;;;;;;;6.27;50.20;99973.19;4910246;29;19926;-64
2023/02/04 15:55:42;;;;;;;;;;;;;;;5.97;49.85;99974.72;4909649;29;19923;-65
2023/02/04 15:58:07;;;;;;;;;;;;;;;6.00;51.14;99979.88;4915273;29;19922;-64
2023/02/04 16:00:33;;;;;;;;;;;;;;;5.98;51.49;99986.84;4915587;29;19926;-68
2023/02/04 16:02:58;;;;;;;;;;;;;;;5.82;51.07;99989.75;4914258;29;19919;-65
2023/02/04 16:05:23;;;;;;;;;;;;;;;5.63;51.78;99988.41;4911038;29;19978;-64
2023/02/04 16:07:48;;;;;;;;;;;;;;;5.46;52.93;99994.78;4914170;29;19982;-64
2023/02/04 16:10:15;;;;;;;;;;;;;;;5.31;53.78;99994.25;4927551;29;19919;-64
2023/02/04 16:12:40;;;;;;;;;;;;;;;5.12;54.66;99996.31;4910863;29;19919;-63
2023/02/04 16:15:05;;;;;;;;;;;;;;;4.93;55.10;99994.03;4912786;29;19945;-64
2023/02/04 16:17:30;;;;;;;;;;;;;;;4.75;55.66;99995.22;4912151;29;19919;-63
2023/02/04 16:19:56;;;;;;;;;;;;;;;4.53;56.07;100002.47;4915865;29;19922;-64
2023/02/04 16:22:22;;;;;;;;;;;;;;;4.46;56.79;100002.59;4910942;29;20014;-63
2023/02/04 16:24:47;;;;;;;;;;;;;;;4.36;57.42;100009.66;4908681;29;20357;-63
2023/02/04 16:27:12;;;;;;;;;;;;;;;4.24;57.42;100017.66;4910824;29;20339;-64
2023/02/04 16:29:38;;;;;;;;;;;;;;;4.27;58.36;100017.59;4914174;29;19962;-64
2023/02/04 16:32:03;;;;;;;;;;;;;;;4.19;57.84;100019.44;4912063;29;19926;-64
2023/02/04 16:34:28;;;;;;;;;;;;;;;4.20;58.50;100022.03;4913712;29;19931;-64
2023/02/04 16:36:53;;;;;;;;;;;;;;;4.12;58.14;100028.19;4912218;29;19919;-63
2023/02/04 16:39:19;;;;;;;;;;;;;;;4.08;58.09;100031.72;4908579;29;19915;-64
2023/02/04 16:41:44;;;;;;;;;;;;;;;3.92;58.39;100034.53;4912928;29;20286;-65
2023/02/04 16:44:09;;;;;;;;;;;;;;;3.85;58.87;100035.44;4912558;29;20006;-63
2023/02/04 16:46:34;;;;;;;;;;;;;;;3.83;58.90;100037.22;4914111;29;20067;-63
2023/02/04 16:48:59;;;;;;;;;;;;;;;3.68;59.39;100047.75;4912255;29;20010;-63
2023/02/04 16:51:25;;;;;;;;;;;;;;;3.65;59.27;100052.97;4914099;29;20060;-64
2023/02/04 16:53:50;;;;;;;;;;;;;;;3.68;59.71;100053.84;4912640;29;19989;-63
2023/02/04 16:56:15;;;;;;;;;;;;;;;3.70;60.20;100053.81;4913367;29;19926;-63
2023/02/04 16:58:40;;;;;;;;;;;;;;;3.72;60.35;100049.47;4911018;29;19970;-64
2023/02/04 17:01:06;;;;;;;;;;;;;;;3.69;60.35;100057.28;4910634;29;19915;-64
2023/02/04 17:03:31;;;;;;;;;;;;;;;3.64;60.07;100059.91;4911963;29;19923;-64
2023/02/04 17:05:56;;;;;;;;;;;;;;;3.63;60.96;100053.00;4896560;29;19915;-65
2023/02/04 17:08:22;;;;;;;;;;;;;;;3.62;61.09;100060.81;4910176;29;19923;-64
2023/02/04 17:13:31;;;;;;;;;;;;;;;3.57;62.40;100064.31;4913530;29;19922;-65
2023/02/04 17:15:59;;;;;;;;;;;;;;;3.55;61.23;100066.06;4914530;29;19915;-65
2023/02/04 17:18:25;;;;;;;;;;;;;;;3.68;68.91;100073.72;4914714;29;19921;-65
2023/02/04 17:20:51;;;;;;;;;;;;;;;3.61;62.37;100069.47;4913937;29;19915;-65
2023/02/04 17:23:16;;;;;;;;;;;;;;;3.46;61.30;100063.56;4914440;29;20013;-65
2023/02/04 17:25:41;;;;;;;;;;;;;;;3.38;61.20;100067.97;4913905;29;19970;-65
2023/02/04 17:28:06;;;;;;;;;;;;;;;3.36;62.26;100066.28;4911389;29;19992;-65
2023/02/04 17:30:32;;;;;;;;;;;;;;;3.33;61.83;100072.34;4910867;29;19958;-65
2023/02/04 17:32:57;;;;;;;;;;;;;;;3.31;62.19;100067.19;4916010;29;19956;-65
2023/02/04 17:35:22;;;;;;;;;;;;;;;3.28;61.79;100058.56;4914279;29;19950;-65
2023/02/04 17:37:47;;;;;;;;;;;;;;;3.20;61.49;100055.16;4912178;29;19953;-65
2023/02/04 17:40:12;;;;;;;;;;;;;;;3.17;62.55;100060.41;4906628;29;19915;-64
2023/02/04 17:42:38;;;;;;;;;;;;;;;3.15;62.40;100064.75;4915919;29;19911;-65
2023/02/04 17:45:03;;;;;;;;;;;;;;;3.08;62.39;100057.00;4913821;29;19947;-65
2023/02/04 17:47:29;;;;;;;;;;;;;;;3.06;62.74;100058.78;4913464;29;19958;-65
2023/02/04 17:49:54;;;;;;;;;;;;;;;3.05;62.85;100059.63;4907064;29;19915;-65
2023/02/04 17:52:20;;;;;;;;;;;;;;;3.02;63.31;100051.88;4914950;29;19922;-65
2023/02/04 17:54:45;;;;;;;;;;;;;;;2.95;64.01;100057.97;4911094;29;19931;-64
2023/02/04 17:57:16;;;;;;;;;;;;;;;2.94;64.88;100058.84;4902994;29;20011;-65
2023/02/04 17:59:41;;;;;;;;;;;;;;;2.93;64.35;100059.75;4909457;29;19925;-64
2023/02/04 18:02:14;;;;;;;;;;;;;;;2.87;64.79;100059.78;4910652;29;20013;-64
2023/02/04 18:04:40;;;;;;;;;;;;;;;2.83;65.80;100058.94;4897524;29;20402;-65
